sensor_id;sensor_type;location;lat;lon;timestamp;P1;durP1;ratioP1;P2;durP2;ratioP2
55497;SDS011;41357;52.806;18.268;2023-05-07T00:00:19;11.40;;;6.95;;
55497;SDS011;41357;52.806;18.268;2023-05-07T00:02:46;12.07;;;7.20;;
55497;SDS011;41357;52.806;18.268;2023-05-07T00:05:12;14.25;;;7.47;;
55497;SDS011;41357;52.806;18.268;2023-05-07T00:07:38;11.85;;;6.57;;
55497;SDS011;41357;52.806;18.268;2023-05-07T00:10:05;13.02;;;6.53;;
55497;SDS011;41357;52.806;18.268;2023-05-07T00:12:32;15.40;;;7.03;;
55497;SDS011;41357;52.806;18.268;2023-05-07T00:15:03;16.02;;;8.05;;
55497;SDS011;41357;52.806;18.268;2023-05-07T00:17:29;15.88;;;8.75;;
55497;SDS011;41357;52.806;18.268;2023-05-07T00:19:56;17.83;;;9.00;;
55497;SDS011;41357;52.806;18.268;2023-05-07T00:22:22;18.70;;;9.60;;
55497;SDS011;41357;52.806;18.268;2023-05-07T00:24:48;19.63;;;9.32;;
55497;SDS011;41357;52.806;18.268;2023-05-07T00:27:14;18.88;;;9.68;;
55497;SDS011;41357;52.806;18.268;2023-05-07T00:29:40;15.80;;;8.57;;
55497;SDS011;41357;52.806;18.268;2023-05-07T00:32:06;15.45;;;8.55;;
55497;SDS011;41357;52.806;18.268;2023-05-07T00:34:32;19.38;;;9.50;;
55497;SDS011;41357;52.806;18.268;2023-05-07T00:36:58;16.95;;;9.05;;
55497;SDS011;41357;52.806;18.268;2023-05-07T00:39:24;16.25;;;8.93;;
55497;SDS011;41357;52.806;18.268;2023-05-07T00:41:51;16.05;;;8.18;;
55497;SDS011;41357;52.806;18.268;2023-05-07T00:44:17;16.40;;;8.50;;
55497;SDS011;41357;52.806;18.268;2023-05-07T00:46:43;14.77;;;8.25;;
55497;SDS011;41357;52.806;18.268;2023-05-07T00:49:15;17.30;;;9.00;;
55497;SDS011;41357;52.806;18.268;2023-05-07T00:51:41;18.30;;;7.97;;
55497;SDS011;41357;52.806;18.268;2023-05-07T00:54:08;14.32;;;8.15;;
55497;SDS011;41357;52.806;18.268;2023-05-07T00:56:34;13.52;;;7.68;;
55497;SDS011;41357;52.806;18.268;2023-05-07T00:59:01;16.35;;;8.35;;
55497;SDS011;41357;52.806;18.268;2023-05-07T01:01:28;14.35;;;7.70;;
55497;SDS011;41357;52.806;18.268;2023-05-07T01:03:54;14.65;;;7.32;;
55497;SDS011;41357;52.806;18.268;2023-05-07T01:06:21;13.23;;;7.43;;
55497;SDS011;41357;52.806;18.268;2023-05-07T01:08:48;17.20;;;7.38;;
55497;SDS011;41357;52.806;18.268;2023-05-07T01:11:17;12.38;;;7.00;;
55497;SDS011;41357;52.806;18.268;2023-05-07T01:13:45;15.63;;;7.22;;
55497;SDS011;41357;52.806;18.268;2023-05-07T01:16:12;18.75;;;8.18;;
55497;SDS011;41357;52.806;18.268;2023-05-07T01:18:38;12.75;;;7.10;;
55497;SDS011;41357;52.806;18.268;2023-05-07T01:21:05;15.63;;;7.38;;
55497;SDS011;41357;52.806;18.268;2023-05-07T01:23:31;21.95;;;7.80;;
55497;SDS011;41357;52.806;18.268;2023-05-07T01:25:58;11.70;;;6.68;;
55497;SDS011;41357;52.806;18.268;2023-05-07T01:28:24;13.23;;;7.88;;
55497;SDS011;41357;52.806;18.268;2023-05-07T01:30:52;13.55;;;6.82;;
55497;SDS011;41357;52.806;18.268;2023-05-07T01:33:21;12.27;;;7.22;;
55497;SDS011;41357;52.806;18.268;2023-05-07T01:35:48;14.98;;;6.70;;
55497;SDS011;41357;52.806;18.268;2023-05-07T01:38:15;18.20;;;7.88;;
55497;SDS011;41357;52.806;18.268;2023-05-07T01:40:42;13.93;;;8.02;;
55497;SDS011;41357;52.806;18.268;2023-05-07T01:43:08;14.15;;;7.50;;
55497;SDS011;41357;52.806;18.268;2023-05-07T01:45:35;16.58;;;8.20;;
55497;SDS011;41357;52.806;18.268;2023-05-07T01:48:02;14.13;;;7.13;;
55497;SDS011;41357;52.806;18.268;2023-05-07T01:50:28;13.90;;;7.47;;
55497;SDS011;41357;52.806;18.268;2023-05-07T01:52:55;11.93;;;6.97;;
55497;SDS011;41357;52.806;18.268;2023-05-07T01:55:21;15.85;;;7.65;;
55497;SDS011;41357;52.806;18.268;2023-05-07T01:57:48;11.63;;;6.88;;
55497;SDS011;41357;52.806;18.268;2023-05-07T02:00:14;12.88;;;7.47;;
55497;SDS011;41357;52.806;18.268;2023-05-07T02:02:41;11.18;;;6.80;;
55497;SDS011;41357;52.806;18.268;2023-05-07T02:05:07;12.00;;;6.57;;
55497;SDS011;41357;52.806;18.268;2023-05-07T02:07:33;13.13;;;6.43;;
55497;SDS011;41357;52.806;18.268;2023-05-07T02:09:59;13.60;;;6.25;;
55497;SDS011;41357;52.806;18.268;2023-05-07T02:12:26;10.50;;;5.70;;
55497;SDS011;41357;52.806;18.268;2023-05-07T02:14:52;11.85;;;6.70;;
55497;SDS011;41357;52.806;18.268;2023-05-07T02:17:18;13.90;;;6.95;;
55497;SDS011;41357;52.806;18.268;2023-05-07T02:19:44;12.82;;;6.35;;
55497;SDS011;41357;52.806;18.268;2023-05-07T02:22:10;12.85;;;6.55;;
55497;SDS011;41357;52.806;18.268;2023-05-07T02:24:36;17.33;;;5.97;;
55497;SDS011;41357;52.806;18.268;2023-05-07T02:27:02;12.15;;;5.55;;
55497;SDS011;41357;52.806;18.268;2023-05-07T02:29:29;12.80;;;6.05;;
55497;SDS011;41357;52.806;18.268;2023-05-07T02:31:55;12.88;;;6.13;;
55497;SDS011;41357;52.806;18.268;2023-05-07T02:34:21;9.82;;;5.65;;
55497;SDS011;41357;52.806;18.268;2023-05-07T02:36:47;10.02;;;5.72;;
55497;SDS011;41357;52.806;18.268;2023-05-07T02:39:13;14.02;;;5.90;;
55497;SDS011;41357;52.806;18.268;2023-05-07T02:41:40;10.75;;;5.38;;
55497;SDS011;41357;52.806;18.268;2023-05-07T02:44:06;15.35;;;5.35;;
55497;SDS011;41357;52.806;18.268;2023-05-07T02:46:32;11.38;;;5.75;;
55497;SDS011;41357;52.806;18.268;2023-05-07T02:48:59;13.93;;;5.47;;
55497;SDS011;41357;52.806;18.268;2023-05-07T02:51:25;12.13;;;6.20;;
55497;SDS011;41357;52.806;18.268;2023-05-07T02:53:52;8.70;;;5.55;;
55497;SDS011;41357;52.806;18.268;2023-05-07T02:56:18;11.98;;;5.80;;
55497;SDS011;41357;52.806;18.268;2023-05-07T02:58:44;12.75;;;5.55;;
55497;SDS011;41357;52.806;18.268;2023-05-07T03:01:10;8.77;;;5.05;;
55497;SDS011;41357;52.806;18.268;2023-05-07T03:03:39;11.15;;;5.50;;
55497;SDS011;41357;52.806;18.268;2023-05-07T03:06:05;10.23;;;5.90;;
55497;SDS011;41357;52.806;18.268;2023-05-07T03:08:32;11.80;;;5.72;;
55497;SDS011;41357;52.806;18.268;2023-05-07T03:10:58;11.52;;;5.22;;
55497;SDS011;41357;52.806;18.268;2023-05-07T03:13:24;10.68;;;5.38;;
55497;SDS011;41357;52.806;18.268;2023-05-07T03:15:51;10.70;;;5.45;;
55497;SDS011;41357;52.806;18.268;2023-05-07T03:18:17;14.18;;;5.50;;
55497;SDS011;41357;52.806;18.268;2023-05-07T03:20:43;11.18;;;5.95;;
55497;SDS011;41357;52.806;18.268;2023-05-07T03:23:09;9.75;;;5.57;;
55497;SDS011;41357;52.806;18.268;2023-05-07T03:25:35;11.05;;;5.82;;
55497;SDS011;41357;52.806;18.268;2023-05-07T03:28:01;10.50;;;6.13;;
55497;SDS011;41357;52.806;18.268;2023-05-07T03:30:28;11.07;;;5.55;;
55497;SDS011;41357;52.806;18.268;2023-05-07T03:32:54;10.32;;;5.80;;
55497;SDS011;41357;52.806;18.268;2023-05-07T03:35:20;9.13;;;6.07;;
55497;SDS011;41357;52.806;18.268;2023-05-07T03:37:46;15.13;;;6.15;;
55497;SDS011;41357;52.806;18.268;2023-05-07T03:40:12;12.35;;;6.20;;
55497;SDS011;41357;52.806;18.268;2023-05-07T03:42:38;14.70;;;6.20;;
55497;SDS011;41357;52.806;18.268;2023-05-07T03:45:05;15.50;;;6.95;;
55497;SDS011;41357;52.806;18.268;2023-05-07T03:47:31;11.52;;;6.40;;
55497;SDS011;41357;52.806;18.268;2023-05-07T03:49:57;12.10;;;6.20;;
55497;SDS011;41357;52.806;18.268;2023-05-07T03:52:24;11.80;;;6.78;;
55497;SDS011;41357;52.806;18.268;2023-05-07T03:54:51;12.45;;;7.00;;
55497;SDS011;41357;52.806;18.268;2023-05-07T03:57:17;11.15;;;6.30;;
55497;SDS011;41357;52.806;18.268;2023-05-07T03:59:43;15.40;;;7.05;;
55497;SDS011;41357;52.806;18.268;2023-05-07T04:02:10;14.63;;;6.57;;
55497;SDS011;41357;52.806;18.268;2023-05-07T04:04:36;13.20;;;6.45;;
55497;SDS011;41357;52.806;18.268;2023-05-07T04:07:02;14.27;;;6.10;;
55497;SDS011;41357;52.806;18.268;2023-05-07T04:09:28;10.85;;;6.30;;
55497;SDS011;41357;52.806;18.268;2023-05-07T04:11:54;10.32;;;5.93;;
55497;SDS011;41357;52.806;18.268;2023-05-07T04:14:20;11.20;;;5.90;;
55497;SDS011;41357;52.806;18.268;2023-05-07T04:16:46;10.07;;;5.45;;
55497;SDS011;41357;52.806;18.268;2023-05-07T04:19:13;11.85;;;4.60;;
55497;SDS011;41357;52.806;18.268;2023-05-07T04:21:39;7.72;;;4.90;;
55497;SDS011;41357;52.806;18.268;2023-05-07T04:24:05;8.68;;;5.20;;
55497;SDS011;41357;52.806;18.268;2023-05-07T04:26:31;8.93;;;4.95;;
55497;SDS011;41357;52.806;18.268;2023-05-07T04:28:57;9.85;;;4.78;;
55497;SDS011;41357;52.806;18.268;2023-05-07T04:31:24;10.10;;;5.25;;
55497;SDS011;41357;52.806;18.268;2023-05-07T04:33:50;12.70;;;5.15;;
55497;SDS011;41357;52.806;18.268;2023-05-07T04:36:17;9.82;;;4.55;;
55497;SDS011;41357;52.806;18.268;2023-05-07T04:38:43;7.82;;;4.60;;
55497;SDS011;41357;52.806;18.268;2023-05-07T04:41:09;10.48;;;5.47;;
55497;SDS011;41357;52.806;18.268;2023-05-07T04:43:36;8.60;;;5.28;;
55497;SDS011;41357;52.806;18.268;2023-05-07T04:46:02;9.80;;;4.90;;
55497;SDS011;41357;52.806;18.268;2023-05-07T04:48:28;9.85;;;5.40;;
55497;SDS011;41357;52.806;18.268;2023-05-07T04:50:55;12.07;;;5.35;;
55497;SDS011;41357;52.806;18.268;2023-05-07T04:53:21;8.13;;;5.25;;
55497;SDS011;41357;52.806;18.268;2023-05-07T04:55:47;10.68;;;5.35;;
55497;SDS011;41357;52.806;18.268;2023-05-07T04:58:13;16.20;;;5.90;;
55497;SDS011;41357;52.806;18.268;2023-05-07T05:00:40;11.15;;;5.72;;
55497;SDS011;41357;52.806;18.268;2023-05-07T05:03:07;9.82;;;5.53;;
55497;SDS011;41357;52.806;18.268;2023-05-07T05:05:33;10.35;;;5.20;;
55497;SDS011;41357;52.806;18.268;2023-05-07T05:07:59;11.07;;;5.65;;
55497;SDS011;41357;52.806;18.268;2023-05-07T05:10:25;7.47;;;5.03;;
55497;SDS011;41357;52.806;18.268;2023-05-07T05:12:52;10.88;;;5.20;;
55497;SDS011;41357;52.806;18.268;2023-05-07T05:15:18;9.55;;;5.38;;
55497;SDS011;41357;52.806;18.268;2023-05-07T05:17:44;10.98;;;5.03;;
55497;SDS011;41357;52.806;18.268;2023-05-07T05:20:10;9.02;;;4.90;;
55497;SDS011;41357;52.806;18.268;2023-05-07T05:22:36;11.80;;;5.03;;
55497;SDS011;41357;52.806;18.268;2023-05-07T05:25:03;10.63;;;4.90;;
55497;SDS011;41357;52.806;18.268;2023-05-07T05:27:29;10.40;;;4.50;;
55497;SDS011;41357;52.806;18.268;2023-05-07T05:29:55;7.65;;;4.55;;
55497;SDS011;41357;52.806;18.268;2023-05-07T05:32:21;11.55;;;4.97;;
55497;SDS011;41357;52.806;18.268;2023-05-07T05:34:47;9.38;;;4.00;;
55497;SDS011;41357;52.806;18.268;2023-05-07T05:37:14;6.90;;;4.07;;
55497;SDS011;41357;52.806;18.268;2023-05-07T05:39:40;7.82;;;3.65;;
55497;SDS011;41357;52.806;18.268;2023-05-07T05:42:07;7.72;;;3.85;;
55497;SDS011;41357;52.806;18.268;2023-05-07T05:44:33;7.93;;;3.88;;
55497;SDS011;41357;52.806;18.268;2023-05-07T05:46:59;7.30;;;3.53;;
55497;SDS011;41357;52.806;18.268;2023-05-07T05:49:25;6.10;;;3.30;;
55497;SDS011;41357;52.806;18.268;2023-05-07T05:51:51;7.63;;;3.92;;
55497;SDS011;41357;52.806;18.268;2023-05-07T05:54:17;8.63;;;3.25;;
55497;SDS011;41357;52.806;18.268;2023-05-07T05:56:44;5.90;;;3.65;;
55497;SDS011;41357;52.806;18.268;2023-05-07T05:59:10;6.65;;;3.58;;
55497;SDS011;41357;52.806;18.268;2023-05-07T06:01:36;8.13;;;3.42;;
55497;SDS011;41357;52.806;18.268;2023-05-07T06:04:02;8.85;;;3.55;;
55497;SDS011;41357;52.806;18.268;2023-05-07T06:06:28;7.38;;;3.58;;
55497;SDS011;41357;52.806;18.268;2023-05-07T06:08:56;5.78;;;3.53;;
55497;SDS011;41357;52.806;18.268;2023-05-07T06:11:22;7.28;;;2.80;;
55497;SDS011;41357;52.806;18.268;2023-05-07T06:13:48;5.25;;;3.17;;
55497;SDS011;41357;52.806;18.268;2023-05-07T06:16:15;5.57;;;3.20;;
55497;SDS011;41357;52.806;18.268;2023-05-07T06:18:41;5.35;;;3.28;;
55497;SDS011;41357;52.806;18.268;2023-05-07T06:21:07;7.25;;;2.45;;
55497;SDS011;41357;52.806;18.268;2023-05-07T06:23:33;12.20;;;2.55;;
55497;SDS011;41357;52.806;18.268;2023-05-07T06:26:00;5.28;;;2.72;;
55497;SDS011;41357;52.806;18.268;2023-05-07T06:28:26;5.55;;;2.78;;
55497;SDS011;41357;52.806;18.268;2023-05-07T06:30:52;7.90;;;2.85;;
55497;SDS011;41357;52.806;18.268;2023-05-07T06:33:18;5.47;;;2.75;;
55497;SDS011;41357;52.806;18.268;2023-05-07T06:35:44;3.83;;;2.65;;
55497;SDS011;41357;52.806;18.268;2023-05-07T06:38:11;4.53;;;2.22;;
55497;SDS011;41357;52.806;18.268;2023-05-07T06:40:37;6.07;;;2.42;;
55497;SDS011;41357;52.806;18.268;2023-05-07T06:43:03;5.03;;;2.70;;
55497;SDS011;41357;52.806;18.268;2023-05-07T06:45:30;3.58;;;2.22;;
55497;SDS011;41357;52.806;18.268;2023-05-07T06:47:56;5.20;;;2.50;;
55497;SDS011;41357;52.806;18.268;2023-05-07T06:50:22;7.03;;;2.58;;
55497;SDS011;41357;52.806;18.268;2023-05-07T06:52:48;4.78;;;2.10;;
55497;SDS011;41357;52.806;18.268;2023-05-07T06:55:14;5.53;;;2.80;;
55497;SDS011;41357;52.806;18.268;2023-05-07T06:57:40;5.10;;;2.55;;
55497;SDS011;41357;52.806;18.268;2023-05-07T07:00:07;4.30;;;2.47;;
55497;SDS011;41357;52.806;18.268;2023-05-07T07:02:34;4.43;;;2.60;;
55497;SDS011;41357;52.806;18.268;2023-05-07T07:05:01;5.75;;;2.55;;
55497;SDS011;41357;52.806;18.268;2023-05-07T07:07:27;6.53;;;2.35;;
55497;SDS011;41357;52.806;18.268;2023-05-07T07:09:53;5.97;;;2.38;;
55497;SDS011;41357;52.806;18.268;2023-05-07T07:12:20;3.83;;;2.60;;
55497;SDS011;41357;52.806;18.268;2023-05-07T07:14:47;4.95;;;2.25;;
55497;SDS011;41357;52.806;18.268;2023-05-07T07:17:13;5.80;;;2.95;;
55497;SDS011;41357;52.806;18.268;2023-05-07T07:19:39;5.70;;;2.17;;
55497;SDS011;41357;52.806;18.268;2023-05-07T07:22:05;3.97;;;2.42;;
55497;SDS011;41357;52.806;18.268;2023-05-07T07:24:32;3.47;;;2.38;;
55497;SDS011;41357;52.806;18.268;2023-05-07T07:26:58;5.45;;;2.65;;
55497;SDS011;41357;52.806;18.268;2023-05-07T07:29:24;5.68;;;2.40;;
55497;SDS011;41357;52.806;18.268;2023-05-07T07:31:51;4.50;;;2.30;;
55497;SDS011;41357;52.806;18.268;2023-05-07T07:34:17;6.68;;;2.53;;
55497;SDS011;41357;52.806;18.268;2023-05-07T07:36:43;4.03;;;2.42;;
55497;SDS011;41357;52.806;18.268;2023-05-07T07:39:10;7.78;;;2.50;;
55497;SDS011;41357;52.806;18.268;2023-05-07T07:41:36;3.92;;;2.20;;
55497;SDS011;41357;52.806;18.268;2023-05-07T07:44:03;5.05;;;2.83;;
55497;SDS011;41357;52.806;18.268;2023-05-07T07:46:32;4.03;;;2.27;;
55497;SDS011;41357;52.806;18.268;2023-05-07T07:48:58;4.53;;;2.15;;
55497;SDS011;41357;52.806;18.268;2023-05-07T07:51:25;8.77;;;2.67;;
55497;SDS011;41357;52.806;18.268;2023-05-07T07:53:51;4.00;;;2.50;;
55497;SDS011;41357;52.806;18.268;2023-05-07T07:56:18;3.88;;;2.45;;
55497;SDS011;41357;52.806;18.268;2023-05-07T07:58:44;5.38;;;2.65;;
55497;SDS011;41357;52.806;18.268;2023-05-07T08:01:10;4.88;;;2.72;;
55497;SDS011;41357;52.806;18.268;2023-05-07T08:03:37;5.22;;;2.80;;
55497;SDS011;41357;52.806;18.268;2023-05-07T08:06:03;3.63;;;2.53;;
55497;SDS011;41357;52.806;18.268;2023-05-07T08:08:30;4.07;;;2.60;;
55497;SDS011;41357;52.806;18.268;2023-05-07T08:10:56;10.27;;;2.50;;
55497;SDS011;41357;52.806;18.268;2023-05-07T08:13:22;4.53;;;2.40;;
55497;SDS011;41357;52.806;18.268;2023-05-07T08:15:48;4.53;;;2.80;;
55497;SDS011;41357;52.806;18.268;2023-05-07T08:18:14;9.30;;;2.97;;
55497;SDS011;41357;52.806;18.268;2023-05-07T08:20:40;4.03;;;2.85;;
55497;SDS011;41357;52.806;18.268;2023-05-07T08:23:07;6.05;;;2.45;;
55497;SDS011;41357;52.806;18.268;2023-05-07T08:25:33;6.30;;;2.90;;
55497;SDS011;41357;52.806;18.268;2023-05-07T08:28:00;5.63;;;2.65;;
55497;SDS011;41357;52.806;18.268;2023-05-07T08:30:26;4.97;;;2.85;;
55497;SDS011;41357;52.806;18.268;2023-05-07T08:32:53;4.53;;;2.40;;
55497;SDS011;41357;52.806;18.268;2023-05-07T08:35:19;6.10;;;2.60;;
55497;SDS011;41357;52.806;18.268;2023-05-07T08:37:46;4.25;;;2.25;;
55497;SDS011;41357;52.806;18.268;2023-05-07T08:40:13;8.27;;;2.15;;
55497;SDS011;41357;52.806;18.268;2023-05-07T08:42:39;3.83;;;2.15;;
55497;SDS011;41357;52.806;18.268;2023-05-07T08:45:08;4.35;;;2.78;;
55497;SDS011;41357;52.806;18.268;2023-05-07T08:47:58;4.57;;;3.00;;
55497;SDS011;41357;52.806;18.268;2023-05-07T08:50:23;5.00;;;2.55;;
55497;SDS011;41357;52.806;18.268;2023-05-07T08:52:50;4.25;;;1.90;;
55497;SDS011;41357;52.806;18.268;2023-05-07T08:55:16;4.03;;;2.10;;
55497;SDS011;41357;52.806;18.268;2023-05-07T08:57:43;3.08;;;1.60;;
55497;SDS011;41357;52.806;18.268;2023-05-07T09:00:10;6.35;;;2.00;;
55497;SDS011;41357;52.806;18.268;2023-05-07T09:02:37;2.60;;;1.70;;
55497;SDS011;41357;52.806;18.268;2023-05-07T09:05:03;4.45;;;2.17;;
55497;SDS011;41357;52.806;18.268;2023-05-07T09:07:30;2.80;;;1.63;;
55497;SDS011;41357;52.806;18.268;2023-05-07T09:09:57;8.98;;;2.45;;
55497;SDS011;41357;52.806;18.268;2023-05-07T09:12:23;5.60;;;1.90;;
55497;SDS011;41357;52.806;18.268;2023-05-07T09:14:52;3.95;;;2.10;;
55497;SDS011;41357;52.806;18.268;2023-05-07T09:17:19;3.25;;;1.65;;
55497;SDS011;41357;52.806;18.268;2023-05-07T09:19:45;2.08;;;1.48;;
55497;SDS011;41357;52.806;18.268;2023-05-07T09:22:12;4.15;;;2.50;;
55497;SDS011;41357;52.806;18.268;2023-05-07T09:24:38;3.47;;;1.80;;
55497;SDS011;41357;52.806;18.268;2023-05-07T09:27:05;3.78;;;2.20;;
55497;SDS011;41357;52.806;18.268;2023-05-07T09:29:31;5.57;;;2.20;;
55497;SDS011;41357;52.806;18.268;2023-05-07T09:32:04;3.03;;;1.90;;
55497;SDS011;41357;52.806;18.268;2023-05-07T09:34:31;3.28;;;2.30;;
55497;SDS011;41357;52.806;18.268;2023-05-07T09:37:00;4.03;;;1.90;;
55497;SDS011;41357;52.806;18.268;2023-05-07T09:39:38;3.35;;;1.90;;
55497;SDS011;41357;52.806;18.268;2023-05-07T09:42:04;7.22;;;2.08;;
55497;SDS011;41357;52.806;18.268;2023-05-07T09:44:31;8.68;;;2.40;;
55497;SDS011;41357;52.806;18.268;2023-05-07T09:46:58;3.55;;;2.10;;
55497;SDS011;41357;52.806;18.268;2023-05-07T09:49:25;4.32;;;2.13;;
55497;SDS011;41357;52.806;18.268;2023-05-07T09:51:55;3.05;;;2.13;;
55497;SDS011;41357;52.806;18.268;2023-05-07T09:54:24;2.90;;;2.08;;
55497;SDS011;41357;52.806;18.268;2023-05-07T09:56:52;4.80;;;2.30;;
55497;SDS011;41357;52.806;18.268;2023-05-07T09:59:18;3.70;;;2.10;;
55497;SDS011;41357;52.806;18.268;2023-05-07T10:01:46;3.38;;;2.00;;
55497;SDS011;41357;52.806;18.268;2023-05-07T10:04:12;4.00;;;1.77;;
55497;SDS011;41357;52.806;18.268;2023-05-07T10:06:39;2.35;;;1.80;;
55497;SDS011;41357;52.806;18.268;2023-05-07T10:09:06;4.18;;;2.08;;
55497;SDS011;41357;52.806;18.268;2023-05-07T10:11:35;5.95;;;2.78;;
55497;SDS011;41357;52.806;18.268;2023-05-07T10:14:02;4.10;;;2.22;;
55497;SDS011;41357;52.806;18.268;2023-05-07T10:16:31;5.22;;;2.92;;
55497;SDS011;41357;52.806;18.268;2023-05-07T10:19:02;30.23;;;21.63;;
55497;SDS011;41357;52.806;18.268;2023-05-07T10:21:29;4.75;;;2.78;;
55497;SDS011;41357;52.806;18.268;2023-05-07T10:24:00;3.37;;;2.30;;
55497;SDS011;41357;52.806;18.268;2023-05-07T10:26:31;5.10;;;1.80;;
55497;SDS011;41357;52.806;18.268;2023-05-07T10:28:59;2.40;;;1.90;;
55497;SDS011;41357;52.806;18.268;2023-05-07T10:31:41;1.85;;;1.30;;
55497;SDS011;41357;52.806;18.268;2023-05-07T10:34:10;3.53;;;1.95;;
55497;SDS011;41357;52.806;18.268;2023-05-07T10:36:38;6.13;;;2.20;;
55497;SDS011;41357;52.806;18.268;2023-05-07T10:39:04;5.63;;;1.85;;
55497;SDS011;41357;52.806;18.268;2023-05-07T10:41:31;8.27;;;1.92;;
55497;SDS011;41357;52.806;18.268;2023-05-07T10:43:58;6.90;;;2.60;;
55497;SDS011;41357;52.806;18.268;2023-05-07T10:46:26;4.05;;;2.03;;
55497;SDS011;41357;52.806;18.268;2023-05-07T10:49:06;7.53;;;1.90;;
55497;SDS011;41357;52.806;18.268;2023-05-07T10:51:32;5.05;;;2.10;;
55497;SDS011;41357;52.806;18.268;2023-05-07T10:56:41;3.78;;;1.88;;
55497;SDS011;41357;52.806;18.268;2023-05-07T11:01:58;3.22;;;1.67;;
55497;SDS011;41357;52.806;18.268;2023-05-07T11:04:24;2.92;;;1.85;;
55497;SDS011;41357;52.806;18.268;2023-05-07T11:15:06;5.32;;;3.33;;
55497;SDS011;41357;52.806;18.268;2023-05-07T11:17:35;2.65;;;1.77;;
55497;SDS011;41357;52.806;18.268;2023-05-07T11:20:17;3.42;;;1.60;;
55497;SDS011;41357;52.806;18.268;2023-05-07T11:22:44;3.00;;;1.60;;
55497;SDS011;41357;52.806;18.268;2023-05-07T11:25:10;3.33;;;1.85;;
55497;SDS011;41357;52.806;18.268;2023-05-07T11:27:44;5.75;;;2.55;;
55497;SDS011;41357;52.806;18.268;2023-05-07T11:30:21;3.08;;;1.75;;
55497;SDS011;41357;52.806;18.268;2023-05-07T11:35:24;2.47;;;1.35;;
55497;SDS011;41357;52.806;18.268;2023-05-07T11:37:57;5.20;;;1.73;;
55497;SDS011;41357;52.806;18.268;2023-05-07T11:40:23;3.28;;;1.90;;
55497;SDS011;41357;52.806;18.268;2023-05-07T11:42:49;4.35;;;2.00;;
55497;SDS011;41357;52.806;18.268;2023-05-07T11:45:22;3.00;;;1.60;;
55497;SDS011;41357;52.806;18.268;2023-05-07T11:47:50;3.88;;;1.40;;
55497;SDS011;41357;52.806;18.268;2023-05-07T11:50:17;4.07;;;1.40;;
55497;SDS011;41357;52.806;18.268;2023-05-07T11:52:50;3.05;;;1.38;;
55497;SDS011;41357;52.806;18.268;2023-05-07T11:55:18;2.92;;;1.70;;
55497;SDS011;41357;52.806;18.268;2023-05-07T11:57:45;2.78;;;1.38;;
55497;SDS011;41357;52.806;18.268;2023-05-07T12:00:11;4.75;;;2.42;;
55497;SDS011;41357;52.806;18.268;2023-05-07T12:02:38;5.80;;;1.60;;
55497;SDS011;41357;52.806;18.268;2023-05-07T12:05:05;3.83;;;1.67;;
55497;SDS011;41357;52.806;18.268;2023-05-07T12:07:33;2.08;;;1.35;;
55497;SDS011;41357;52.806;18.268;2023-05-07T12:09:59;2.90;;;1.80;;
55497;SDS011;41357;52.806;18.268;2023-05-07T12:12:25;5.25;;;1.75;;
55497;SDS011;41357;52.806;18.268;2023-05-07T12:17:27;3.83;;;1.60;;
55497;SDS011;41357;52.806;18.268;2023-05-07T12:19:54;4.60;;;1.50;;
55497;SDS011;41357;52.806;18.268;2023-05-07T12:22:20;3.45;;;1.50;;
55497;SDS011;41357;52.806;18.268;2023-05-07T12:24:47;2.60;;;1.50;;
55497;SDS011;41357;52.806;18.268;2023-05-07T12:27:14;2.15;;;1.40;;
55497;SDS011;41357;52.806;18.268;2023-05-07T12:29:43;2.90;;;1.60;;
55497;SDS011;41357;52.806;18.268;2023-05-07T12:34:37;3.10;;;2.40;;
55497;SDS011;41357;52.806;18.268;2023-05-07T12:37:03;3.75;;;1.70;;
55497;SDS011;41357;52.806;18.268;2023-05-07T12:39:29;5.63;;;2.60;;
55497;SDS011;41357;52.806;18.268;2023-05-07T12:41:55;3.88;;;2.58;;
55497;SDS011;41357;52.806;18.268;2023-05-07T12:44:24;3.22;;;1.55;;
55497;SDS011;41357;52.806;18.268;2023-05-07T12:46:50;2.67;;;1.30;;
55497;SDS011;41357;52.806;18.268;2023-05-07T12:49:16;3.08;;;1.27;;
55497;SDS011;41357;52.806;18.268;2023-05-07T12:51:48;3.08;;;1.48;;
55497;SDS011;41357;52.806;18.268;2023-05-07T12:54:34;5.65;;;2.42;;
55497;SDS011;41357;52.806;18.268;2023-05-07T12:57:12;5.88;;;2.08;;
55497;SDS011;41357;52.806;18.268;2023-05-07T12:59:39;24.92;;;4.85;;
55497;SDS011;41357;52.806;18.268;2023-05-07T13:02:06;2.97;;;2.03;;
55497;SDS011;41357;52.806;18.268;2023-05-07T13:04:32;3.47;;;1.75;;
55497;SDS011;41357;52.806;18.268;2023-05-07T13:06:59;5.60;;;2.17;;
55497;SDS011;41357;52.806;18.268;2023-05-07T13:09:25;2.92;;;1.80;;
55497;SDS011;41357;52.806;18.268;2023-05-07T13:11:54;2.78;;;1.92;;
55497;SDS011;41357;52.806;18.268;2023-05-07T13:14:20;4.45;;;1.60;;
55497;SDS011;41357;52.806;18.268;2023-05-07T13:16:46;3.15;;;1.80;;
55497;SDS011;41357;52.806;18.268;2023-05-07T13:19:13;3.15;;;1.45;;
55497;SDS011;41357;52.806;18.268;2023-05-07T13:21:39;4.53;;;2.20;;
55497;SDS011;41357;52.806;18.268;2023-05-07T13:24:05;15.93;;;5.18;;
55497;SDS011;41357;52.806;18.268;2023-05-07T13:26:31;5.70;;;3.10;;
55497;SDS011;41357;52.806;18.268;2023-05-07T13:28:58;9.43;;;3.22;;
55497;SDS011;41357;52.806;18.268;2023-05-07T13:31:24;29.90;;;6.20;;
55497;SDS011;41357;52.806;18.268;2023-05-07T13:33:50;6.63;;;2.50;;
55497;SDS011;41357;52.806;18.268;2023-05-07T13:36:17;4.03;;;2.05;;
55497;SDS011;41357;52.806;18.268;2023-05-07T13:38:44;3.28;;;1.60;;
55497;SDS011;41357;52.806;18.268;2023-05-07T13:41:11;3.15;;;1.90;;
55497;SDS011;41357;52.806;18.268;2023-05-07T13:43:38;5.72;;;1.55;;
55497;SDS011;41357;52.806;18.268;2023-05-07T13:46:04;3.25;;;1.60;;
55497;SDS011;41357;52.806;18.268;2023-05-07T13:48:30;3.53;;;1.52;;
55497;SDS011;41357;52.806;18.268;2023-05-07T13:50:57;3.65;;;1.60;;
55497;SDS011;41357;52.806;18.268;2023-05-07T13:53:23;2.83;;;1.40;;
55497;SDS011;41357;52.806;18.268;2023-05-07T13:55:49;2.13;;;1.30;;
55497;SDS011;41357;52.806;18.268;2023-05-07T13:58:16;3.85;;;1.60;;
55497;SDS011;41357;52.806;18.268;2023-05-07T14:00:42;8.88;;;3.38;;
55497;SDS011;41357;52.806;18.268;2023-05-07T14:03:08;3.63;;;1.90;;
55497;SDS011;41357;52.806;18.268;2023-05-07T14:05:35;3.45;;;1.80;;
55497;SDS011;41357;52.806;18.268;2023-05-07T14:08:02;6.78;;;1.52;;
55497;SDS011;41357;52.806;18.268;2023-05-07T14:10:29;4.88;;;1.30;;
55497;SDS011;41357;52.806;18.268;2023-05-07T14:12:56;2.60;;;1.45;;
55497;SDS011;41357;52.806;18.268;2023-05-07T14:15:22;3.63;;;2.15;;
55497;SDS011;41357;52.806;18.268;2023-05-07T14:17:48;4.10;;;1.48;;
55497;SDS011;41357;52.806;18.268;2023-05-07T14:20:15;4.18;;;1.88;;
55497;SDS011;41357;52.806;18.268;2023-05-07T14:22:41;2.40;;;1.42;;
55497;SDS011;41357;52.806;18.268;2023-05-07T14:25:07;3.63;;;1.65;;
55497;SDS011;41357;52.806;18.268;2023-05-07T14:27:34;2.78;;;1.67;;
55497;SDS011;41357;52.806;18.268;2023-05-07T14:30:01;7.05;;;3.38;;
55497;SDS011;41357;52.806;18.268;2023-05-07T14:32:27;10.65;;;2.30;;
55497;SDS011;41357;52.806;18.268;2023-05-07T14:34:53;4.45;;;2.30;;
55497;SDS011;41357;52.806;18.268;2023-05-07T14:37:20;3.78;;;2.00;;
55497;SDS011;41357;52.806;18.268;2023-05-07T14:39:46;2.25;;;1.35;;
55497;SDS011;41357;52.806;18.268;2023-05-07T14:42:12;3.65;;;1.65;;
55497;SDS011;41357;52.806;18.268;2023-05-07T14:44:38;3.85;;;1.83;;
55497;SDS011;41357;52.806;18.268;2023-05-07T14:47:06;3.97;;;1.90;;
55497;SDS011;41357;52.806;18.268;2023-05-07T14:49:33;6.68;;;1.45;;